sensor_id;sensor_type;location;lat;lon;timestamp;P1;durP1;ratioP1;P2;durP2;ratioP2
75005;SDS011;63553;51.814;4.600;2023-03-31T00:01:23;3.75;;;1.40;;
75005;SDS011;63553;51.814;4.600;2023-03-31T00:03:48;3.13;;;1.38;;
75005;SDS011;63553;51.814;4.600;2023-03-31T00:06:13;2.13;;;1.13;;
75005;SDS011;63553;51.814;4.600;2023-03-31T00:08:43;3.13;;;1.77;;
75005;SDS011;63553;51.814;4.600;2023-03-31T00:11:10;4.35;;;1.45;;
75005;SDS011;63553;51.814;4.600;2023-03-31T00:13:36;2.97;;;1.45;;
75005;SDS011;63553;51.814;4.600;2023-03-31T00:16:05;3.53;;;1.85;;
75005;SDS011;63553;51.814;4.600;2023-03-31T00:18:33;3.78;;;1.60;;
75005;SDS011;63553;51.814;4.600;2023-03-31T00:21:09;4.65;;;1.63;;
75005;SDS011;63553;51.814;4.600;2023-03-31T00:23:51;5.90;;;1.42;;
75005;SDS011;63553;51.814;4.600;2023-03-31T00:26:21;2.97;;;1.27;;
75005;SDS011;63553;51.814;4.600;2023-03-31T00:28:47;2.45;;;1.50;;
75005;SDS011;63553;51.814;4.600;2023-03-31T00:31:13;4.47;;;1.70;;
75005;SDS011;63553;51.814;4.600;2023-03-31T00:33:38;3.40;;;1.40;;
75005;SDS011;63553;51.814;4.600;2023-03-31T00:36:04;3.53;;;1.27;;
75005;SDS011;63553;51.814;4.600;2023-03-31T00:38:30;4.50;;;1.70;;
75005;SDS011;63553;51.814;4.600;2023-03-31T00:40:56;2.22;;;1.15;;
75005;SDS011;63553;51.814;4.600;2023-03-31T00:43:32;3.10;;;1.30;;
75005;SDS011;63553;51.814;4.600;2023-03-31T00:48:43;3.47;;;1.50;;
75005;SDS011;63553;51.814;4.600;2023-03-31T00:51:12;2.10;;;1.30;;
75005;SDS011;63553;51.814;4.600;2023-03-31T00:53:38;4.13;;;1.42;;
75005;SDS011;63553;51.814;4.600;2023-03-31T00:56:06;4.25;;;1.65;;
75005;SDS011;63553;51.814;4.600;2023-03-31T00:58:36;4.40;;;1.58;;
75005;SDS011;63553;51.814;4.600;2023-03-31T01:01:07;4.18;;;1.70;;
75005;SDS011;63553;51.814;4.600;2023-03-31T01:03:38;4.78;;;1.52;;
75005;SDS011;63553;51.814;4.600;2023-03-31T01:06:04;3.60;;;1.50;;
75005;SDS011;63553;51.814;4.600;2023-03-31T01:08:34;4.60;;;1.50;;
75005;SDS011;63553;51.814;4.600;2023-03-31T01:11:02;4.72;;;1.55;;
75005;SDS011;63553;51.814;4.600;2023-03-31T01:13:35;2.42;;;1.20;;
75005;SDS011;63553;51.814;4.600;2023-03-31T01:16:03;3.55;;;1.15;;
75005;SDS011;63553;51.814;4.600;2023-03-31T01:18:28;4.78;;;1.30;;
75005;SDS011;63553;51.814;4.600;2023-03-31T01:23:48;3.80;;;1.30;;
75005;SDS011;63553;51.814;4.600;2023-03-31T01:26:28;2.95;;;1.70;;
75005;SDS011;63553;51.814;4.600;2023-03-31T01:51:43;2.90;;;1.13;;
75005;SDS011;63553;51.814;4.600;2023-03-31T01:56:50;2.53;;;1.52;;
75005;SDS011;63553;51.814;4.600;2023-03-31T01:59:22;2.97;;;1.30;;
75005;SDS011;63553;51.814;4.600;2023-03-31T02:01:55;4.95;;;1.67;;
75005;SDS011;63553;51.814;4.600;2023-03-31T02:07:11;2.58;;;1.17;;
75005;SDS011;63553;51.814;4.600;2023-03-31T02:09:43;1.42;;;1.05;;
75005;SDS011;63553;51.814;4.600;2023-03-31T02:12:13;2.97;;;1.20;;
75005;SDS011;63553;51.814;4.600;2023-03-31T02:14:42;4.03;;;1.90;;
75005;SDS011;63553;51.814;4.600;2023-03-31T02:17:12;2.88;;;1.50;;
75005;SDS011;63553;51.814;4.600;2023-03-31T02:19:42;1.05;;;1.00;;
75005;SDS011;63553;51.814;4.600;2023-03-31T02:22:09;2.95;;;1.20;;
75005;SDS011;63553;51.814;4.600;2023-03-31T02:24:37;3.30;;;1.10;;
75005;SDS011;63553;51.814;4.600;2023-03-31T02:27:06;2.45;;;1.00;;
75005;SDS011;63553;51.814;4.600;2023-03-31T02:29:38;2.13;;;1.02;;
75005;SDS011;63553;51.814;4.600;2023-03-31T02:34:43;3.28;;;1.20;;
75005;SDS011;63553;51.814;4.600;2023-03-31T02:37:08;5.93;;;2.23;;
75005;SDS011;63553;51.814;4.600;2023-03-31T02:39:34;3.13;;;1.20;;
75005;SDS011;63553;51.814;4.600;2023-03-31T02:42:03;4.07;;;1.35;;
75005;SDS011;63553;51.814;4.600;2023-03-31T02:44:34;1.90;;;1.27;;
75005;SDS011;63553;51.814;4.600;2023-03-31T02:47:02;2.97;;;1.27;;
75005;SDS011;63553;51.814;4.600;2023-03-31T02:49:30;3.05;;;1.30;;
75005;SDS011;63553;51.814;4.600;2023-03-31T03:06:41;3.80;;;1.10;;
75005;SDS011;63553;51.814;4.600;2023-03-31T03:12:15;2.88;;;1.38;;
75005;SDS011;63553;51.814;4.600;2023-03-31T03:17:50;1.85;;;1.20;;
75005;SDS011;63553;51.814;4.600;2023-03-31T03:20:18;1.45;;;0.85;;
75005;SDS011;63553;51.814;4.600;2023-03-31T03:22:44;2.85;;;1.13;;
75005;SDS011;63553;51.814;4.600;2023-03-31T03:25:11;2.92;;;1.40;;
75005;SDS011;63553;51.814;4.600;2023-03-31T03:27:37;3.85;;;1.27;;
75005;SDS011;63553;51.814;4.600;2023-03-31T03:30:03;3.47;;;1.55;;
75005;SDS011;63553;51.814;4.600;2023-03-31T03:32:31;2.72;;;1.23;;
75005;SDS011;63553;51.814;4.600;2023-03-31T03:34:57;2.10;;;1.00;;
75005;SDS011;63553;51.814;4.600;2023-03-31T03:37:27;4.50;;;1.40;;
75005;SDS011;63553;51.814;4.600;2023-03-31T03:39:53;2.50;;;1.20;;
75005;SDS011;63553;51.814;4.600;2023-03-31T03:42:19;2.42;;;1.10;;
75005;SDS011;63553;51.814;4.600;2023-03-31T03:44:44;1.55;;;1.20;;
75005;SDS011;63553;51.814;4.600;2023-03-31T03:47:09;1.90;;;1.10;;
75005;SDS011;63553;51.814;4.600;2023-03-31T03:49:35;4.40;;;1.45;;
75005;SDS011;63553;51.814;4.600;2023-03-31T03:52:00;3.80;;;1.30;;
75005;SDS011;63553;51.814;4.600;2023-03-31T03:54:25;5.10;;;1.70;;
75005;SDS011;63553;51.814;4.600;2023-03-31T03:56:51;3.90;;;1.20;;
75005;SDS011;63553;51.814;4.600;2023-03-31T03:59:16;2.63;;;1.17;;
75005;SDS011;63553;51.814;4.600;2023-03-31T04:01:41;58.20;;;16.73;;
75005;SDS011;63553;51.814;4.600;2023-03-31T04:04:07;26.98;;;7.72;;
75005;SDS011;63553;51.814;4.600;2023-03-31T04:06:32;30.67;;;8.77;;
75005;SDS011;63553;51.814;4.600;2023-03-31T04:08:58;23.15;;;7.70;;
75005;SDS011;63553;51.814;4.600;2023-03-31T04:11:23;23.97;;;7.63;;
75005;SDS011;63553;51.814;4.600;2023-03-31T04:13:48;20.75;;;7.00;;
75005;SDS011;63553;51.814;4.600;2023-03-31T04:16:14;22.57;;;7.80;;
75005;SDS011;63553;51.814;4.600;2023-03-31T04:18:40;22.48;;;7.07;;
75005;SDS011;63553;51.814;4.600;2023-03-31T04:21:07;22.52;;;6.93;;
75005;SDS011;63553;51.814;4.600;2023-03-31T04:23:36;20.60;;;6.07;;
75005;SDS011;63553;51.814;4.600;2023-03-31T04:28:33;17.83;;;5.82;;
75005;SDS011;63553;51.814;4.600;2023-03-31T04:31:02;15.80;;;5.70;;
75005;SDS011;63553;51.814;4.600;2023-03-31T04:33:30;12.57;;;5.18;;
75005;SDS011;63553;51.814;4.600;2023-03-31T04:35:58;16.33;;;6.00;;
75005;SDS011;63553;51.814;4.600;2023-03-31T04:38:30;13.88;;;4.47;;
75005;SDS011;63553;51.814;4.600;2023-03-31T04:40:57;11.73;;;4.53;;
75005;SDS011;63553;51.814;4.600;2023-03-31T04:43:23;13.65;;;4.47;;
75005;SDS011;63553;51.814;4.600;2023-03-31T04:45:48;11.93;;;4.10;;
75005;SDS011;63553;51.814;4.600;2023-03-31T04:48:14;10.40;;;3.88;;
75005;SDS011;63553;51.814;4.600;2023-03-31T04:50:40;11.90;;;4.10;;
75005;SDS011;63553;51.814;4.600;2023-03-31T04:53:05;10.90;;;4.55;;
75005;SDS011;63553;51.814;4.600;2023-03-31T04:55:31;12.98;;;4.13;;
75005;SDS011;63553;51.814;4.600;2023-03-31T04:57:56;8.55;;;3.53;;
75005;SDS011;63553;51.814;4.600;2023-03-31T05:00:22;8.30;;;3.55;;
75005;SDS011;63553;51.814;4.600;2023-03-31T05:02:47;11.02;;;4.00;;
75005;SDS011;63553;51.814;4.600;2023-03-31T05:05:13;7.88;;;3.47;;
75005;SDS011;63553;51.814;4.600;2023-03-31T05:07:38;9.48;;;3.05;;
75005;SDS011;63553;51.814;4.600;2023-03-31T05:10:04;10.45;;;3.13;;
75005;SDS011;63553;51.814;4.600;2023-03-31T05:12:36;8.20;;;3.35;;
75005;SDS011;63553;51.814;4.600;2023-03-31T05:15:02;4.57;;;2.65;;
75005;SDS011;63553;51.814;4.600;2023-03-31T05:17:32;5.55;;;2.95;;
75005;SDS011;63553;51.814;4.600;2023-03-31T05:19:59;8.60;;;2.50;;
75005;SDS011;63553;51.814;4.600;2023-03-31T05:22:25;6.13;;;2.80;;
75005;SDS011;63553;51.814;4.600;2023-03-31T05:24:51;5.07;;;2.20;;
75005;SDS011;63553;51.814;4.600;2023-03-31T05:27:16;3.60;;;2.10;;
75005;SDS011;63553;51.814;4.600;2023-03-31T05:29:43;5.82;;;2.50;;
75005;SDS011;63553;51.814;4.600;2023-03-31T05:32:08;5.63;;;2.78;;
75005;SDS011;63553;51.814;4.600;2023-03-31T05:34:34;3.85;;;2.15;;
75005;SDS011;63553;51.814;4.600;2023-03-31T05:37:00;4.15;;;2.13;;
75005;SDS011;63553;51.814;4.600;2023-03-31T05:39:25;5.82;;;2.30;;
75005;SDS011;63553;51.814;4.600;2023-03-31T05:41:56;4.38;;;1.95;;
75005;SDS011;63553;51.814;4.600;2023-03-31T05:44:22;4.47;;;2.05;;
75005;SDS011;63553;51.814;4.600;2023-03-31T05:46:47;5.57;;;2.50;;
75005;SDS011;63553;51.814;4.600;2023-03-31T05:49:12;4.23;;;1.73;;
75005;SDS011;63553;51.814;4.600;2023-03-31T05:51:40;3.97;;;1.80;;
75005;SDS011;63553;51.814;4.600;2023-03-31T05:54:05;4.30;;;1.73;;
75005;SDS011;63553;51.814;4.600;2023-03-31T05:56:30;2.70;;;2.10;;
75005;SDS011;63553;51.814;4.600;2023-03-31T05:58:58;2.97;;;1.57;;
75005;SDS011;63553;51.814;4.600;2023-03-31T06:01:24;2.72;;;1.42;;
75005;SDS011;63553;51.814;4.600;2023-03-31T06:03:49;2.22;;;1.35;;
75005;SDS011;63553;51.814;4.600;2023-03-31T06:06:15;1.40;;;1.30;;
75005;SDS011;63553;51.814;4.600;2023-03-31T06:08:41;1.13;;;0.80;;
75005;SDS011;63553;51.814;4.600;2023-03-31T06:11:08;32.35;;;3.28;;
75005;SDS011;63553;51.814;4.600;2023-03-31T06:13:35;109.22;;;9.48;;
75005;SDS011;63553;51.814;4.600;2023-03-31T06:16:01;12.70;;;2.42;;
75005;SDS011;63553;51.814;4.600;2023-03-31T06:18:27;6.82;;;1.45;;
75005;SDS011;63553;51.814;4.600;2023-03-31T06:20:53;2.92;;;0.88;;
75005;SDS011;63553;51.814;4.600;2023-03-31T06:23:20;2.05;;;1.00;;
75005;SDS011;63553;51.814;4.600;2023-03-31T06:25:46;1.05;;;1.00;;
75005;SDS011;63553;51.814;4.600;2023-03-31T06:28:12;1.85;;;0.80;;
75005;SDS011;63553;51.814;4.600;2023-03-31T06:30:37;2.58;;;1.08;;
75005;SDS011;63553;51.814;4.600;2023-03-31T06:33:03;2.17;;;1.10;;
75005;SDS011;63553;51.814;4.600;2023-03-31T06:35:29;1.15;;;1.02;;
75005;SDS011;63553;51.814;4.600;2023-03-31T06:37:54;2.50;;;1.27;;
75005;SDS011;63553;51.814;4.600;2023-03-31T06:40:19;1.30;;;1.20;;
75005;SDS011;63553;51.814;4.600;2023-03-31T06:42:45;2.78;;;1.10;;
75005;SDS011;63553;51.814;4.600;2023-03-31T06:45:10;2.83;;;1.20;;
75005;SDS011;63553;51.814;4.600;2023-03-31T06:47:36;2.43;;;1.20;;
75005;SDS011;63553;51.814;4.600;2023-03-31T06:50:05;3.28;;;1.30;;
75005;SDS011;63553;51.814;4.600;2023-03-31T06:52:32;2.50;;;1.30;;
75005;SDS011;63553;51.814;4.600;2023-03-31T06:54:58;4.47;;;1.30;;
75005;SDS011;63553;51.814;4.600;2023-03-31T06:57:24;3.63;;;1.67;;
75005;SDS011;63553;51.814;4.600;2023-03-31T06:59:50;2.30;;;1.20;;
75005;SDS011;63553;51.814;4.600;2023-03-31T07:02:15;7.47;;;1.70;;
75005;SDS011;63553;51.814;4.600;2023-03-31T07:04:41;6.73;;;1.50;;
75005;SDS011;63553;51.814;4.600;2023-03-31T07:07:06;2.57;;;1.57;;
75005;SDS011;63553;51.814;4.600;2023-03-31T07:09:31;5.10;;;2.03;;
75005;SDS011;63553;51.814;4.600;2023-03-31T07:11:57;4.57;;;1.57;;
75005;SDS011;63553;51.814;4.600;2023-03-31T07:14:22;4.30;;;1.70;;
75005;SDS011;63553;51.814;4.600;2023-03-31T07:16:47;4.05;;;2.28;;
75005;SDS011;63553;51.814;4.600;2023-03-31T07:19:14;4.20;;;1.63;;
75005;SDS011;63553;51.814;4.600;2023-03-31T07:21:39;3.97;;;1.65;;
75005;SDS011;63553;51.814;4.600;2023-03-31T07:24:05;6.22;;;1.65;;
75005;SDS011;63553;51.814;4.600;2023-03-31T07:26:32;6.80;;;1.95;;
75005;SDS011;63553;51.814;4.600;2023-03-31T07:28:57;6.30;;;1.80;;
75005;SDS011;63553;51.814;4.600;2023-03-31T07:31:23;3.63;;;1.50;;
75005;SDS011;63553;51.814;4.600;2023-03-31T07:33:48;6.20;;;1.40;;
75005;SDS011;63553;51.814;4.600;2023-03-31T07:36:14;6.28;;;1.70;;
75005;SDS011;63553;51.814;4.600;2023-03-31T07:38:40;6.03;;;1.80;;
75005;SDS011;63553;51.814;4.600;2023-03-31T07:41:10;6.78;;;2.05;;
75005;SDS011;63553;51.814;4.600;2023-03-31T07:43:37;7.90;;;1.88;;
75005;SDS011;63553;51.814;4.600;2023-03-31T07:46:02;7.47;;;2.10;;
75005;SDS011;63553;51.814;4.600;2023-03-31T07:48:29;5.57;;;1.63;;
75005;SDS011;63553;51.814;4.600;2023-03-31T07:50:54;6.40;;;1.83;;
75005;SDS011;63553;51.814;4.600;2023-03-31T07:53:20;5.03;;;1.85;;
75005;SDS011;63553;51.814;4.600;2023-03-31T07:55:46;5.60;;;2.10;;
75005;SDS011;63553;51.814;4.600;2023-03-31T07:58:11;11.40;;;2.35;;
75005;SDS011;63553;51.814;4.600;2023-03-31T08:00:37;8.13;;;2.50;;
75005;SDS011;63553;51.814;4.600;2023-03-31T08:03:02;9.52;;;2.60;;
75005;SDS011;63553;51.814;4.600;2023-03-31T08:05:27;6.95;;;2.00;;
75005;SDS011;63553;51.814;4.600;2023-03-31T08:07:53;8.95;;;2.05;;
75005;SDS011;63553;51.814;4.600;2023-03-31T08:10:20;11.60;;;2.50;;
75005;SDS011;63553;51.814;4.600;2023-03-31T08:12:48;9.38;;;2.00;;
75005;SDS011;63553;51.814;4.600;2023-03-31T08:15:13;8.25;;;1.95;;
75005;SDS011;63553;51.814;4.600;2023-03-31T08:17:39;8.48;;;2.00;;
75005;SDS011;63553;51.814;4.600;2023-03-31T08:20:05;8.07;;;2.50;;
75005;SDS011;63553;51.814;4.600;2023-03-31T08:22:31;8.40;;;1.88;;
75005;SDS011;63553;51.814;4.600;2023-03-31T08:24:57;11.35;;;2.95;;
75005;SDS011;63553;51.814;4.600;2023-03-31T08:27:22;7.80;;;2.17;;
75005;SDS011;63553;51.814;4.600;2023-03-31T08:29:47;9.30;;;2.13;;
75005;SDS011;63553;51.814;4.600;2023-03-31T08:32:14;9.68;;;2.13;;
75005;SDS011;63553;51.814;4.600;2023-03-31T08:34:39;10.13;;;2.45;;
75005;SDS011;63553;51.814;4.600;2023-03-31T08:37:06;8.57;;;1.67;;
75005;SDS011;63553;51.814;4.600;2023-03-31T08:39:33;7.07;;;2.38;;
75005;SDS011;63553;51.814;4.600;2023-03-31T08:42:13;14.30;;;2.33;;
75005;SDS011;63553;51.814;4.600;2023-03-31T08:44:50;9.18;;;2.60;;
75005;SDS011;63553;51.814;4.600;2023-03-31T08:47:24;9.43;;;2.40;;
75005;SDS011;63553;51.814;4.600;2023-03-31T08:49:53;12.18;;;2.67;;
75005;SDS011;63553;51.814;4.600;2023-03-31T08:52:27;11.00;;;2.55;;
75005;SDS011;63553;51.814;4.600;2023-03-31T08:54:57;8.80;;;2.15;;
75005;SDS011;63553;51.814;4.600;2023-03-31T08:57:27;8.02;;;2.83;;
75005;SDS011;63553;51.814;4.600;2023-03-31T08:59:59;14.18;;;2.85;;
75005;SDS011;63553;51.814;4.600;2023-03-31T09:02:33;9.02;;;2.30;;
75005;SDS011;63553;51.814;4.600;2023-03-31T09:05:22;8.57;;;2.53;;
75005;SDS011;63553;51.814;4.600;2023-03-31T09:08:04;9.35;;;2.80;;
75005;SDS011;63553;51.814;4.600;2023-03-31T09:10:42;8.45;;;2.15;;
75005;SDS011;63553;51.814;4.600;2023-03-31T09:16:13;9.88;;;2.45;;
75005;SDS011;63553;51.814;4.600;2023-03-31T09:18:40;7.97;;;2.45;;
75005;SDS011;63553;51.814;4.600;2023-03-31T09:23:43;8.60;;;1.75;;
75005;SDS011;63553;51.814;4.600;2023-03-31T09:26:18;7.53;;;1.88;;
75005;SDS011;63553;51.814;4.600;2023-03-31T09:28:51;6.68;;;2.10;;
75005;SDS011;63553;51.814;4.600;2023-03-31T09:31:19;7.93;;;2.28;;
75005;SDS011;63553;51.814;4.600;2023-03-31T09:33:46;12.68;;;2.40;;
75005;SDS011;63553;51.814;4.600;2023-03-31T09:36:13;8.85;;;2.28;;
75005;SDS011;63553;51.814;4.600;2023-03-31T09:38:41;7.82;;;2.20;;
75005;SDS011;63553;51.814;4.600;2023-03-31T09:41:07;9.60;;;2.38;;
75005;SDS011;63553;51.814;4.600;2023-03-31T09:43:34;4.43;;;1.83;;
75005;SDS011;63553;51.814;4.600;2023-03-31T09:46:00;9.52;;;2.67;;
75005;SDS011;63553;51.814;4.600;2023-03-31T09:48:28;5.22;;;1.77;;
75005;SDS011;63553;51.814;4.600;2023-03-31T09:51:01;9.80;;;1.95;;
75005;SDS011;63553;51.814;4.600;2023-03-31T09:53:39;7.80;;;2.13;;
75005;SDS011;63553;51.814;4.600;2023-03-31T09:56:10;4.90;;;1.75;;
75005;SDS011;63553;51.814;4.600;2023-03-31T09:58:43;5.93;;;1.65;;
75005;SDS011;63553;51.814;4.600;2023-03-31T10:01:10;4.95;;;1.73;;
75005;SDS011;63553;51.814;4.600;2023-03-31T10:04:11;5.20;;;2.40;;
75005;SDS011;63553;51.814;4.600;2023-03-31T10:06:32;8.85;;;2.10;;
75005;SDS011;63553;51.814;4.600;2023-03-31T10:09:06;6.63;;;1.80;;
75005;SDS011;63553;51.814;4.600;2023-03-31T10:11:34;6.72;;;1.70;;
75005;SDS011;63553;51.814;4.600;2023-03-31T10:14:02;7.57;;;2.10;;
75005;SDS011;63553;51.814;4.600;2023-03-31T10:16:53;8.07;;;1.60;;
75005;SDS011;63553;51.814;4.600;2023-03-31T10:19:28;6.05;;;1.95;;
75005;SDS011;63553;51.814;4.600;2023-03-31T10:22:04;5.97;;;1.95;;
75005;SDS011;63553;51.814;4.600;2023-03-31T10:24:37;7.13;;;1.90;;
75005;SDS011;63553;51.814;4.600;2023-03-31T10:27:05;5.35;;;2.13;;
75005;SDS011;63553;51.814;4.600;2023-03-31T10:29:37;4.93;;;1.80;;
75005;SDS011;63553;51.814;4.600;2023-03-31T10:32:13;7.05;;;2.10;;
75005;SDS011;63553;51.814;4.600;2023-03-31T10:34:47;10.07;;;2.67;;
75005;SDS011;63553;51.814;4.600;2023-03-31T10:37:14;13.02;;;2.22;;
75005;SDS011;63553;51.814;4.600;2023-03-31T10:39:42;7.15;;;2.30;;
75005;SDS011;63553;51.814;4.600;2023-03-31T10:42:09;6.18;;;2.03;;
75005;SDS011;63553;51.814;4.600;2023-03-31T10:44:36;7.38;;;2.47;;
75005;SDS011;63553;51.814;4.600;2023-03-31T10:47:24;9.88;;;2.53;;
75005;SDS011;63553;51.814;4.600;2023-03-31T10:49:49;8.65;;;1.80;;
75005;SDS011;63553;51.814;4.600;2023-03-31T10:52:21;7.75;;;2.22;;
75005;SDS011;63553;51.814;4.600;2023-03-31T10:54:58;6.97;;;1.70;;
75005;SDS011;63553;51.814;4.600;2023-03-31T11:13:47;5.60;;;1.80;;
75005;SDS011;63553;51.814;4.600;2023-03-31T11:19:00;5.32;;;1.58;;
75005;SDS011;63553;51.814;4.600;2023-03-31T11:29:46;5.70;;;1.63;;
75005;SDS011;63553;51.814;4.600;2023-03-31T11:37:53;4.32;;;1.35;;
75005;SDS011;63553;51.814;4.600;2023-03-31T11:40:35;7.00;;;1.98;;
75005;SDS011;63553;51.814;4.600;2023-03-31T11:45:45;2.33;;;1.17;;
75005;SDS011;63553;51.814;4.600;2023-03-31T11:48:28;4.25;;;1.60;;
75005;SDS011;63553;51.814;4.600;2023-03-31T11:51:00;4.15;;;1.30;;
75005;SDS011;63553;51.814;4.600;2023-03-31T11:53:35;4.35;;;1.85;;
75005;SDS011;63553;51.814;4.600;2023-03-31T11:56:02;3.88;;;1.20;;
75005;SDS011;63553;51.814;4.600;2023-03-31T12:03:39;2.42;;;1.20;;
75005;SDS011;63553;51.814;4.600;2023-03-31T12:06:27;3.97;;;1.50;;
75005;SDS011;63553;51.814;4.600;2023-03-31T12:09:01;2.08;;;1.45;;
75005;SDS011;63553;51.814;4.600;2023-03-31T12:15:16;4.20;;;1.50;;
75005;SDS011;63553;51.814;4.600;2023-03-31T12:17:18;9.32;;;1.70;;
75005;SDS011;63553;51.814;4.600;2023-03-31T12:19:47;8.55;;;1.55;;
75005;SDS011;63553;51.814;4.600;2023-03-31T12:24:53;9.68;;;1.88;;
75005;SDS011;63553;51.814;4.600;2023-03-31T12:27:19;7.65;;;1.65;;
75005;SDS011;63553;51.814;4.600;2023-03-31T12:29:56;4.90;;;1.83;;
75005;SDS011;63553;51.814;4.600;2023-03-31T12:32:26;7.13;;;1.67;;
75005;SDS011;63553;51.814;4.600;2023-03-31T12:34:55;6.60;;;1.52;;
75005;SDS011;63553;51.814;4.600;2023-03-31T12:46:35;5.05;;;1.52;;
75005;SDS011;63553;51.814;4.600;2023-03-31T12:51:31;5.05;;;1.63;;
75005;SDS011;63553;51.814;4.600;2023-03-31T12:57:15;3.58;;;1.30;;
75005;SDS011;63553;51.814;4.600;2023-03-31T12:59:44;4.15;;;1.55;;
75005;SDS011;63553;51.814;4.600;2023-03-31T13:04:41;5.47;;;1.75;;
75005;SDS011;63553;51.814;4.600;2023-03-31T13:10:51;4.53;;;1.33;;
75005;SDS011;63553;51.814;4.600;2023-03-31T13:12:53;2.25;;;1.33;;
75005;SDS011;63553;51.814;4.600;2023-03-31T13:15:51;4.50;;;1.60;;
75005;SDS011;63553;51.814;4.600;2023-03-31T13:18:19;5.78;;;1.35;;
75005;SDS011;63553;51.814;4.600;2023-03-31T13:20:46;4.18;;;1.30;;
75005;SDS011;63553;51.814;4.600;2023-03-31T13:23:34;5.13;;;1.60;;
75005;SDS011;63553;51.814;4.600;2023-03-31T13:26:01;2.40;;;1.35;;
75005;SDS011;63553;51.814;4.600;2023-03-31T13:28:31;3.35;;;1.35;;
75005;SDS011;63553;51.814;4.600;2023-03-31T13:31:00;3.85;;;1.33;;
75005;SDS011;63553;51.814;4.600;2023-03-31T13:36:09;3.50;;;1.48;;
75005;SDS011;63553;51.814;4.600;2023-03-31T13:58:07;2.42;;;1.15;;
75005;SDS011;63553;51.814;4.600;2023-03-31T14:06:06;1.30;;;1.02;;
75005;SDS011;63553;51.814;4.600;2023-03-31T14:08:50;3.38;;;1.20;;
75005;SDS011;63553;51.814;4.600;2023-03-31T14:13:57;3.80;;;1.25;;
75005;SDS011;63553;51.814;4.600;2023-03-31T14:16:23;2.05;;;1.17;;
75005;SDS011;63553;51.814;4.600;2023-03-31T14:18:50;4.57;;;1.30;;
75005;SDS011;63553;51.814;4.600;2023-03-31T14:21:30;3.95;;;1.55;;
75005;SDS011;63553;51.814;4.600;2023-03-31T14:24:12;1.58;;;1.05;;
75005;SDS011;63553;51.814;4.600;2023-03-31T14:26:46;1.17;;;1.00;;
75005;SDS011;63553;51.814;4.600;2023-03-31T14:30:01;2.08;;;1.00;;
75005;SDS011;63553;51.814;4.600;2023-03-31T14:37:55;2.20;;;1.00;;
75005;SDS011;63553;51.814;4.600;2023-03-31T14:40:21;2.13;;;1.10;;
75005;SDS011;63553;51.814;4.600;2023-03-31T14:42:48;1.90;;;0.93;;
75005;SDS011;63553;51.814;4.600;2023-03-31T14:45:18;2.67;;;1.00;;
75005;SDS011;63553;51.814;4.600;2023-03-31T14:48:02;5.00;;;1.30;;
75005;SDS011;63553;51.814;4.600;2023-03-31T14:50:35;2.08;;;1.15;;
75005;SDS011;63553;51.814;4.600;2023-03-31T14:53:01;3.30;;;1.23;;
75005;SDS011;63553;51.814;4.600;2023-03-31T14:55:28;1.88;;;0.95;;
75005;SDS011;63553;51.814;4.600;2023-03-31T14:57:57;1.77;;;0.90;;
75005;SDS011;63553;51.814;4.600;2023-03-31T15:00:34;1.55;;;0.88;;
75005;SDS011;63553;51.814;4.600;2023-03-31T15:03:02;2.95;;;1.23;;
75005;SDS011;63553;51.814;4.600;2023-03-31T15:05:32;2.28;;;1.20;;
75005;SDS011;63553;51.814;4.600;2023-03-31T15:08:13;1.83;;;1.20;;
75005;SDS011;63553;51.814;4.600;2023-03-31T15:10:42;1.20;;;1.00;;
75005;SDS011;63553;51.814;4.600;2023-03-31T15:18:56;1.23;;;0.82;;
75005;SDS011;63553;51.814;4.600;2023-03-31T15:21:24;3.53;;;1.30;;
75005;SDS011;63553;51.814;4.600;2023-03-31T15:23:51;2.30;;;1.20;;
75005;SDS011;63553;51.814;4.600;2023-03-31T15:26:20;1.42;;;1.20;;
75005;SDS011;63553;51.814;4.600;2023-03-31T15:29:06;14.52;;;6.63;;
75005;SDS011;63553;51.814;4.600;2023-03-31T15:31:37;43.70;;;14.68;;
75005;SDS011;63553;51.814;4.600;2023-03-31T15:34:12;35.67;;;12.60;;
75005;SDS011;63553;51.814;4.600;2023-03-31T15:36:55;32.75;;;10.48;;
75005;SDS011;63553;51.814;4.600;2023-03-31T15:39:22;46.28;;;15.05;;
75005;SDS011;63553;51.814;4.600;2023-03-31T15:41:49;50.22;;;16.80;;
75005;SDS011;63553;51.814;4.600;2023-03-31T15:44:26;50.47;;;18.67;;
75005;SDS011;63553;51.814;4.600;2023-03-31T15:46:59;51.22;;;18.17;;
75005;SDS011;63553;51.814;4.600;2023-03-31T15:49:26;55.25;;;20.52;;
75005;SDS011;63553;51.814;4.600;2023-03-31T15:51:53;44.80;;;18.05;;
75005;SDS011;63553;51.814;4.600;2023-03-31T15:54:30;59.33;;;21.40;;
75005;SDS011;63553;51.814;4.600;2023-03-31T15:57:05;58.67;;;21.38;;
75005;SDS011;63553;51.814;4.600;2023-03-31T16:02:12;47.65;;;19.17;;
75005;SDS011;63553;51.814;4.600;2023-03-31T16:04:41;60.75;;;24.13;;
75005;SDS011;63553;51.814;4.600;2023-03-31T16:10:17;61.00;;;21.25;;
75005;SDS011;63553;51.814;4.600;2023-03-31T16:12:50;49.70;;;21.38;;
75005;SDS011;63553;51.814;4.600;2023-03-31T16:15:22;50.90;;;22.70;;
75005;SDS011;63553;51.814;4.600;2023-03-31T16:17:58;49.85;;;22.48;;
75005;SDS011;63553;51.814;4.600;2023-03-31T16:20:35;56.30;;;22.92;;
75005;SDS011;63553;51.814;4.600;2023-03-31T16:23:11;54.58;;;22.65;;
75005;SDS011;63553;51.814;4.600;2023-03-31T16:25:40;57.20;;;23.50;;
75005;SDS011;63553;51.814;4.600;2023-03-31T16:28:06;47.90;;;20.35;;
75005;SDS011;63553;51.814;4.600;2023-03-31T16:30:40;44.75;;;19.98;;
75005;SDS011;63553;51.814;4.600;2023-03-31T16:33:08;48.25;;;21.45;;
75005;SDS011;63553;51.814;4.600;2023-03-31T16:35:45;44.70;;;21.13;;
75005;SDS011;63553;51.814;4.600;2023-03-31T16:38:20;47.70;;;20.92;;
75005;SDS011;63553;51.814;4.600;2023-03-31T16:40:48;44.85;;;19.95;;
75005;SDS011;63553;51.814;4.600;2023-03-31T16:43:17;48.53;;;20.98;;
75005;SDS011;63553;51.814;4.600;2023-03-31T16:45:44;38.72;;;19.60;;
75005;SDS011;63553;51.814;4.600;2023-03-31T16:50:40;48.75;;;20.85;;
75005;SDS011;63553;51.814;4.600;2023-03-31T16:53:06;40.42;;;19.58;;
75005;SDS011;63553;51.814;4.600;2023-03-31T16:55:31;37.60;;;18.48;;
75005;SDS011;63553;51.814;4.600;2023-03-31T16:58:00;47.60;;;21.00;;
75005;SDS011;63553;51.814;4.600;2023-03-31T17:00:30;40.05;;;18.88;;
75005;SDS011;63553;51.814;4.600;2023-03-31T17:02:57;38.45;;;18.00;;
75005;SDS011;63553;51.814;4.600;2023-03-31T17:05:25;38.38;;;18.27;;
75005;SDS011;63553;51.814;4.600;2023-03-31T17:07:50;35.90;;;17.63;;
75005;SDS011;63553;51.814;4.600;2023-03-31T17:10:16;42.35;;;16.38;;
75005;SDS011;63553;51.814;4.600;2023-03-31T17:12:42;36.83;;;16.90;;
75005;SDS011;63553;51.814;4.600;2023-03-31T17:15:07;36.67;;;16.43;;
75005;SDS011;63553;51.814;4.600;2023-03-31T17:17:33;32.78;;;15.77;;
75005;SDS011;63553;51.814;4.600;2023-03-31T17:19:59;34.35;;;14.77;;
75005;SDS011;63553;51.814;4.600;2023-03-31T17:22:24;34.95;;;15.63;;
75005;SDS011;63553;51.814;4.600;2023-03-31T17:24:50;32.15;;;14.57;;
75005;SDS011;63553;51.814;4.600;2023-03-31T17:27:21;34.03;;;15.88;;
75005;SDS011;63553;51.814;4.600;2023-03-31T17:29:46;29.63;;;14.63;;
75005;SDS011;63553;51.814;4.600;2023-03-31T17:32:11;31.97;;;15.20;;
75005;SDS011;63553;51.814;4.600;2023-03-31T17:34:38;30.17;;;15.00;;
75005;SDS011;63553;51.814;4.600;2023-03-31T17:37:04;28.88;;;14.02;;
75005;SDS011;63553;51.814;4.600;2023-03-31T17:39:29;30.90;;;14.48;;
75005;SDS011;63553;51.814;4.600;2023-03-31T17:41:55;30.10;;;15.23;;
75005;SDS011;63553;51.814;4.600;2023-03-31T17:44:21;33.55;;;14.63;;
75005;SDS011;63553;51.814;4.600;2023-03-31T17:46:46;24.33;;;12.85;;
75005;SDS011;63553;51.814;4.600;2023-03-31T17:49:12;27.08;;;13.73;;
75005;SDS011;63553;51.814;4.600;2023-03-31T17:51:37;30.33;;;12.40;;
75005;SDS011;63553;51.814;4.600;2023-03-31T17:54:03;26.30;;;12.87;;
75005;SDS011;63553;51.814;4.600;2023-03-31T17:56:28;26.48;;;13.02;;